createdAt,value
2019-06-27T00:00:30.657Z,0.00
2019-06-27T00:01:31.019Z,0.00
2019-06-27T00:02:31.124Z,0.00
2019-06-27T00:03:31.357Z,0.00
2019-06-27T00:04:31.584Z,0.00
2019-06-27T00:05:31.819Z,0.00
2019-06-27T00:06:32.053Z,0.00
2019-06-27T00:07:32.284Z,0.00
2019-06-27T00:08:32.517Z,0.00
2019-06-27T00:09:32.748Z,0.00
2019-06-27T00:10:34.452Z,0.00
2019-06-27T00:11:33.214Z,0.00
2019-06-27T00:12:33.445Z,0.00
2019-06-27T00:13:33.676Z,0.00
2019-06-27T00:14:33.908Z,0.00
2019-06-27T00:15:34.158Z,0.00
2019-06-27T00:16:34.383Z,0.00
2019-06-27T00:17:34.606Z,0.00
2019-06-27T00:18:34.843Z,0.00
2019-06-27T00:19:35.074Z,0.00
2019-06-27T00:20:35.303Z,0.00
2019-06-27T00:21:35.536Z,0.00
2019-06-27T00:22:35.772Z,0.00
2019-06-27T00:23:36.002Z,0.00
2019-06-27T00:24:36.231Z,0.00
2019-06-27T00:25:36.473Z,0.00
2019-06-27T00:26:36.707Z,0.00
2019-06-27T00:27:36.934Z,0.00
2019-06-27T00:28:37.156Z,0.00
2019-06-27T00:29:37.388Z,0.00
2019-06-27T00:30:37.620Z,0.00
2019-06-27T00:31:37.856Z,0.00
2019-06-27T00:32:38.079Z,0.00
2019-06-27T00:33:38.312Z,0.00
2019-06-27T00:34:38.548Z,0.00
2019-06-27T00:35:38.780Z,0.00
2019-06-27T00:36:39.008Z,0.00
2019-06-27T00:37:39.238Z,0.00
2019-06-27T00:38:39.470Z,0.00
2019-06-27T00:39:39.705Z,0.00
2019-06-27T00:40:39.932Z,0.00
2019-06-27T00:41:40.162Z,0.00
2019-06-27T00:42:40.399Z,0.00
2019-06-27T00:43:40.625Z,0.00
2019-06-27T00:44:40.859Z,0.00
2019-06-27T00:45:41.081Z,0.00
2019-06-27T00:46:41.322Z,0.00
2019-06-27T00:47:41.538Z,0.00
2019-06-27T00:48:41.773Z,0.00
2019-06-27T00:49:42.003Z,0.00
2019-06-27T00:50:42.233Z,0.00
2019-06-27T00:51:45.278Z,0.00
2019-06-27T00:52:42.703Z,0.00
2019-06-27T00:53:42.931Z,0.00
2019-06-27T00:54:43.161Z,0.00
2019-06-27T00:55:43.478Z,0.00
2019-06-27T00:56:43.626Z,0.00
2019-06-27T00:57:43.868Z,0.00
2019-06-27T00:58:44.090Z,0.00
2019-06-27T00:59:44.320Z,0.00
2019-06-27T01:00:44.560Z,0.00
2019-06-27T01:01:44.791Z,0.00
2019-06-27T01:02:45.022Z,0.00
2019-06-27T01:03:45.270Z,0.00
2019-06-27T01:04:45.482Z,0.00
2019-06-27T01:05:45.712Z,0.00
2019-06-27T01:06:45.947Z,0.00
2019-06-27T01:07:46.173Z,0.00
2019-06-27T01:08:46.406Z,0.00
2019-06-27T01:09:46.639Z,0.00
2019-06-27T01:10:46.870Z,0.00
2019-06-27T01:11:47.100Z,0.00
2019-06-27T01:12:47.326Z,0.00
2019-06-27T01:13:47.560Z,0.00
2019-06-27T01:14:47.792Z,0.00
2019-06-27T01:15:48.024Z,0.00
2019-06-27T01:16:48.256Z,0.00
2019-06-27T01:17:48.486Z,0.00
2019-06-27T01:18:48.713Z,0.00
2019-06-27T01:19:48.945Z,0.00
2019-06-27T01:20:49.183Z,0.00
2019-06-27T01:21:49.406Z,0.00
2019-06-27T01:22:49.658Z,0.00
2019-06-27T01:23:49.876Z,0.00
2019-06-27T01:24:50.107Z,0.00
2019-06-27T01:25:50.332Z,0.00
2019-06-27T01:26:50.583Z,0.00
2019-06-27T01:27:50.791Z,0.00
2019-06-27T01:28:51.022Z,0.00
2019-06-27T01:29:51.252Z,0.00
2019-06-27T01:30:51.521Z,0.00
2019-06-27T01:31:51.712Z,0.00
2019-06-27T01:32:51.947Z,0.00
2019-06-27T01:33:52.176Z,0.00
2019-06-27T01:34:52.408Z,0.00
2019-06-27T01:35:52.644Z,0.00
2019-06-27T01:36:52.871Z,0.00
2019-06-27T01:37:53.105Z,0.00
2019-06-27T01:38:53.337Z,0.00
2019-06-27T01:39:53.567Z,0.00
2019-06-27T01:40:53.800Z,0.00
2019-06-27T01:41:54.029Z,0.00
2019-06-27T01:42:54.259Z,0.00
2019-06-27T01:43:54.491Z,0.00
2019-06-27T01:44:54.723Z,0.00
2019-06-27T01:45:54.952Z,0.00
2019-06-27T01:46:55.188Z,0.00
2019-06-27T01:47:55.415Z,0.00
2019-06-27T01:48:55.646Z,0.00
2019-06-27T01:49:55.877Z,0.00
2019-06-27T01:50:56.110Z,0.00
2019-06-27T01:51:56.342Z,0.00
2019-06-27T01:52:56.576Z,0.00
2019-06-27T01:53:56.810Z,0.00
2019-06-27T01:54:57.083Z,0.00
2019-06-27T01:55:57.269Z,0.00
2019-06-27T01:56:57.496Z,0.00
2019-06-27T01:57:57.728Z,0.00
2019-06-27T01:58:57.958Z,0.00
2019-06-27T01:59:58.190Z,0.00
2019-06-27T02:00:58.419Z,0.00
2019-06-27T02:01:58.651Z,0.00
2019-06-27T02:02:58.894Z,0.00
2019-06-27T02:03:59.115Z,0.00
2019-06-27T02:04:59.351Z,0.00
2019-06-27T02:05:59.591Z,0.00
2019-06-27T02:06:59.813Z,0.00
2019-06-27T02:08:00.046Z,0.00
2019-06-27T02:09:00.279Z,0.00
2019-06-27T02:10:00.506Z,0.00
2019-06-27T02:11:00.736Z,0.00
2019-06-27T02:12:00.969Z,0.00
2019-06-27T02:13:01.198Z,4.00
2019-06-27T02:14:01.433Z,4.00
2019-06-27T02:15:01.664Z,4.00
2019-06-27T02:16:01.901Z,4.00
2019-06-27T02:17:02.127Z,0.00
2019-06-27T02:18:02.355Z,0.00
2019-06-27T02:19:02.592Z,4.00
2019-06-27T02:20:02.824Z,4.00
2019-06-27T02:21:03.050Z,4.00
2019-06-27T02:22:03.281Z,0.00
2019-06-27T02:23:03.512Z,4.00
2019-06-27T02:24:03.741Z,4.00
2019-06-27T02:25:03.967Z,4.00
2019-06-27T02:26:04.197Z,4.00
2019-06-27T02:27:04.435Z,8.00
2019-06-27T02:28:04.852Z,8.00
2019-06-27T02:29:04.891Z,8.00
2019-06-27T02:30:05.124Z,8.00
2019-06-27T02:31:05.363Z,8.00
2019-06-27T02:32:05.583Z,8.00
2019-06-27T02:33:05.825Z,12.00
2019-06-27T02:34:07.137Z,16.00
2019-06-27T02:35:06.276Z,16.00
2019-06-27T02:36:06.509Z,16.00
2019-06-27T02:37:06.737Z,20.00
2019-06-27T02:38:06.979Z,20.00
2019-06-27T02:39:07.201Z,24.00
2019-06-27T02:40:07.435Z,28.00
2019-06-27T02:41:07.665Z,32.00
2019-06-27T02:42:07.897Z,32.00
2019-06-27T02:43:08.137Z,40.00
2019-06-27T02:44:08.361Z,44.00
2019-06-27T02:45:08.592Z,48.00
2019-06-27T02:46:08.824Z,52.00
2019-06-27T02:47:09.075Z,64.00
2019-06-27T02:48:09.298Z,72.00
2019-06-27T02:49:09.532Z,76.00
2019-06-27T02:50:09.749Z,88.00
2019-06-27T02:51:09.981Z,92.00
2019-06-27T02:52:10.213Z,104.00
2019-06-27T02:53:10.453Z,120.00
2019-06-27T02:54:10.679Z,128.00
2019-06-27T02:55:10.912Z,140.00
2019-06-27T02:56:11.144Z,156.00
2019-06-27T02:57:11.373Z,172.00
2019-06-27T02:58:28.717Z,184.00
2019-06-27T02:59:11.835Z,200.00
2019-06-27T03:00:12.059Z,220.00
2019-06-27T03:01:12.288Z,236.00
2019-06-27T03:02:12.522Z,260.00
2019-06-27T03:03:12.749Z,280.00
2019-06-27T03:04:12.984Z,304.00
2019-06-27T03:05:13.233Z,328.00
2019-06-27T03:06:13.446Z,352.00
2019-06-27T03:07:13.679Z,376.00
2019-06-27T03:08:13.959Z,404.00
2019-06-27T03:09:14.136Z,432.00
2019-06-27T03:10:14.370Z,460.00
2019-06-27T03:11:14.597Z,484.00
2019-06-27T03:12:14.829Z,512.00
2019-06-27T03:13:15.065Z,544.00
2019-06-27T03:14:15.297Z,572.00
2019-06-27T03:15:15.531Z,600.00
2019-06-27T03:16:15.755Z,624.00
2019-06-27T03:17:15.987Z,648.00
2019-06-27T03:18:16.216Z,680.00
2019-06-27T03:19:16.446Z,712.00
2019-06-27T03:20:16.674Z,748.00
2019-06-27T03:21:16.906Z,788.00
2019-06-27T03:22:17.133Z,832.00
2019-06-27T03:23:17.362Z,876.00
2019-06-27T03:24:17.598Z,924.00
2019-06-27T03:25:17.829Z,996.00
2019-06-27T03:26:18.058Z,1084.00
2019-06-27T03:27:18.288Z,1184.00
2019-06-27T03:28:18.519Z,1272.00
2019-06-27T03:29:20.450Z,1360.00
2019-06-27T03:30:18.985Z,1452.00
2019-06-27T03:31:19.225Z,1548.00
2019-06-27T03:32:19.442Z,1716.00
2019-06-27T03:33:19.684Z,2012.00
2019-06-27T03:34:20.054Z,2080.00
2019-06-27T03:35:20.135Z,2076.00
2019-06-27T03:36:20.384Z,2184.00
2019-06-27T03:37:20.616Z,2348.00
2019-06-27T03:38:20.830Z,2604.00
2019-06-27T03:39:21.056Z,2852.00
2019-06-27T03:40:21.292Z,2980.00
2019-06-27T03:41:21.521Z,3152.00
2019-06-27T03:42:21.751Z,3336.00
2019-06-27T03:43:21.978Z,3584.00
2019-06-27T03:44:22.215Z,3892.00
2019-06-27T03:45:22.450Z,4028.00
2019-06-27T03:46:22.671Z,4208.00
2019-06-27T03:47:22.900Z,4764.00
2019-06-27T03:48:23.130Z,5684.00
2019-06-27T03:49:23.361Z,6324.00
2019-06-27T03:50:23.590Z,6916.00
2019-06-27T03:51:23.826Z,8068.00
2019-06-27T03:52:24.127Z,9924.00
2019-06-27T03:53:24.290Z,13216.00
2019-06-27T03:54:24.521Z,14336.00
2019-06-27T03:55:24.753Z,14880.00
2019-06-27T03:56:24.980Z,15520.00
2019-06-27T03:57:25.210Z,16224.00
2019-06-27T03:58:25.441Z,16992.00
2019-06-27T03:59:25.672Z,17952.00
2019-06-27T04:00:25.921Z,18976.00
2019-06-27T04:01:26.147Z,19872.00
2019-06-27T04:02:26.367Z,20064.00
2019-06-27T04:03:26.601Z,20096.00
2019-06-27T04:04:26.832Z,20736.00
2019-06-27T04:05:27.067Z,21280.00
2019-06-27T04:06:27.349Z,21920.00
2019-06-27T04:07:27.534Z,23232.00
2019-06-27T04:08:27.770Z,24000.00
2019-06-27T04:09:27.999Z,24512.00
2019-06-27T04:10:28.232Z,24096.00
2019-06-27T04:11:28.467Z,23680.00
2019-06-27T04:12:28.700Z,24096.00
2019-06-27T04:13:28.936Z,24096.00
2019-06-27T04:14:29.168Z,23744.00
2019-06-27T04:15:29.411Z,22016.00
2019-06-27T04:16:29.637Z,24576.00
2019-06-27T04:17:29.871Z,25888.00
2019-06-27T04:18:30.104Z,27072.00
2019-06-27T04:19:30.341Z,27328.00
2019-06-27T04:20:30.584Z,27936.00
2019-06-27T04:21:30.812Z,27712.00
2019-06-27T04:22:31.046Z,29728.00
2019-06-27T04:23:31.289Z,31232.00
2019-06-27T04:24:31.516Z,32640.00
2019-06-27T04:25:31.751Z,31840.00
2019-06-27T04:26:31.993Z,33056.00
2019-06-27T04:27:32.221Z,32352.00
2019-06-27T04:28:32.468Z,30912.00
2019-06-27T04:29:34.608Z,32096.00
2019-06-27T04:30:32.933Z,34656.00
2019-06-27T04:31:33.169Z,35744.00
2019-06-27T04:32:33.404Z,36736.00
2019-06-27T04:33:33.639Z,37280.00
2019-06-27T04:34:33.875Z,37120.00
2019-06-27T04:35:34.121Z,36256.00
2019-06-27T04:36:34.347Z,34624.00
2019-06-27T04:37:34.584Z,33856.00
2019-06-27T04:38:34.819Z,34016.00
2019-06-27T04:39:35.057Z,34880.00
2019-06-27T04:40:35.337Z,36544.00
2019-06-27T04:41:35.536Z,37568.00
2019-06-27T04:42:35.768Z,37440.00
2019-06-27T04:43:36.006Z,37536.00
2019-06-27T04:44:36.242Z,37632.00
2019-06-27T04:45:36.482Z,36832.00
2019-06-27T04:46:36.719Z,37408.00
2019-06-27T04:47:36.957Z,38624.00
2019-06-27T04:48:37.188Z,39904.00
2019-06-27T04:49:37.457Z,40192.00
2019-06-27T04:50:37.656Z,40192.00
2019-06-27T04:51:37.888Z,39200.00
2019-06-27T04:52:38.130Z,39488.00
2019-06-27T04:53:38.371Z,39008.00
2019-06-27T04:54:38.597Z,39232.00
2019-06-27T04:55:38.838Z,40864.00
2019-06-27T04:56:39.079Z,42144.00
2019-06-27T04:57:39.315Z,43008.00
2019-06-27T04:58:39.556Z,43008.00
2019-06-27T04:59:52.683Z,43008.00
2019-06-27T05:00:40.024Z,42304.00
2019-06-27T05:01:40.277Z,41728.00
2019-06-27T05:02:40.506Z,40832.00
2019-06-27T05:03:40.744Z,41632.00
2019-06-27T05:04:40.988Z,41184.00
2019-06-27T05:05:41.218Z,40896.00
2019-06-27T05:06:41.461Z,41248.00
2019-06-27T05:07:41.696Z,41632.00
2019-06-27T05:08:41.936Z,42432.00
2019-06-27T05:09:42.186Z,43040.00
2019-06-27T05:10:42.409Z,43872.00
2019-06-27T05:11:42.646Z,44704.00
2019-06-27T05:12:42.886Z,44192.00
2019-06-27T05:13:43.123Z,43200.00
2019-06-27T05:14:43.365Z,43424.00
2019-06-27T05:15:43.599Z,42944.00
2019-06-27T05:16:43.838Z,43072.00
2019-06-27T05:17:44.074Z,43264.00
2019-06-27T05:18:44.316Z,41536.00
2019-06-27T05:19:44.604Z,41088.00
2019-06-27T05:20:44.796Z,41856.00
2019-06-27T05:21:45.041Z,41952.00
2019-06-27T05:22:45.265Z,42272.00
2019-06-27T05:23:45.505Z,43840.00
2019-06-27T05:24:45.742Z,43328.00
2019-06-27T05:25:45.981Z,43424.00
2019-06-27T05:26:46.219Z,44448.00
2019-06-27T05:27:46.456Z,44096.00
2019-06-27T05:28:46.693Z,44704.00
2019-06-27T05:29:46.932Z,44384.00
2019-06-27T05:30:51.085Z,43968.00
2019-06-27T05:31:47.423Z,44128.00
2019-06-27T05:32:47.643Z,43712.00
2019-06-27T05:33:47.882Z,44384.00
2019-06-27T05:34:48.117Z,43840.00
2019-06-27T05:35:48.356Z,43776.00
2019-06-27T05:36:48.590Z,44416.00
2019-06-27T05:37:48.871Z,43584.00
2019-06-27T05:38:49.072Z,42496.00
2019-06-27T05:39:49.311Z,42272.00
2019-06-27T05:40:49.548Z,42944.00
2019-06-27T05:41:50.661Z,43360.00
2019-06-27T05:42:50.018Z,43552.00
2019-06-27T05:43:50.261Z,42688.00
2019-06-27T05:44:50.495Z,42080.00
2019-06-27T05:45:50.731Z,40768.00
2019-06-27T05:46:50.969Z,40896.00
2019-06-27T05:47:51.205Z,41152.00
2019-06-27T05:48:51.444Z,41184.00
2019-06-27T05:49:51.683Z,41184.00
2019-06-27T05:50:51.924Z,41184.00
2019-06-27T05:51:52.159Z,40192.00
2019-06-27T05:52:52.401Z,39264.00
2019-06-27T05:53:52.637Z,38464.00
2019-06-27T05:54:52.873Z,39776.00
2019-06-27T05:55:53.114Z,40416.00
2019-06-27T05:56:53.353Z,39168.00
2019-06-27T05:57:53.597Z,37440.00
2019-06-27T05:58:53.828Z,35488.00
2019-06-27T05:59:54.070Z,35616.00
2019-06-27T06:00:54.307Z,35168.00
2019-06-27T06:01:54.545Z,34880.00
2019-06-27T06:02:54.786Z,33632.00
2019-06-27T06:03:55.026Z,34752.00
2019-06-27T06:04:55.257Z,35584.00
2019-06-27T06:05:55.497Z,35136.00
2019-06-27T06:06:55.738Z,33664.00
2019-06-27T06:07:55.976Z,34688.00
2019-06-27T06:08:56.212Z,34176.00
2019-06-27T06:09:56.454Z,18016.00
2019-06-27T06:10:56.697Z,30656.00
2019-06-27T06:11:56.931Z,30464.00
2019-06-27T06:12:57.174Z,31680.00
2019-06-27T06:13:57.413Z,32064.00
2019-06-27T06:14:57.652Z,31680.00
2019-06-27T06:16:00.866Z,28480.00
2019-06-27T06:16:58.129Z,33280.00
2019-06-27T06:17:58.372Z,32416.00
2019-06-27T06:18:58.610Z,31776.00
2019-06-27T06:19:58.849Z,30784.00
2019-06-27T06:20:59.091Z,29888.00
2019-06-27T06:21:59.328Z,30176.00
2019-06-27T06:22:59.569Z,29920.00
2019-06-27T06:23:59.812Z,17280.00
2019-06-27T06:25:00.053Z,28032.00
2019-06-27T06:26:00.291Z,30208.00
2019-06-27T06:27:00.538Z,28960.00
2019-06-27T06:28:00.773Z,28800.00
2019-06-27T06:29:01.009Z,27680.00
2019-06-27T06:30:01.251Z,29088.00
2019-06-27T06:31:01.553Z,27968.00
2019-06-27T06:32:01.729Z,14772.00
2019-06-27T06:33:01.983Z,26272.00
2019-06-27T06:34:02.211Z,15572.00
2019-06-27T06:35:02.444Z,20352.00
2019-06-27T06:36:02.686Z,22208.00
2019-06-27T06:37:02.926Z,26080.00
2019-06-27T06:38:03.174Z,24320.00
2019-06-27T06:39:03.403Z,23008.00
2019-06-27T06:40:03.645Z,21856.00
2019-06-27T06:41:03.891Z,22432.00
2019-06-27T06:42:04.124Z,23040.00
2019-06-27T06:43:04.366Z,22432.00
2019-06-27T06:44:04.603Z,20096.00
2019-06-27T06:45:04.840Z,19648.00
2019-06-27T06:46:05.078Z,20640.00
2019-06-27T06:47:05.320Z,21248.00
2019-06-27T06:48:05.556Z,20160.00
2019-06-27T06:49:05.800Z,19936.00
2019-06-27T06:50:06.040Z,20160.00
2019-06-27T06:51:06.274Z,19456.00
2019-06-27T06:52:06.513Z,19104.00
2019-06-27T06:53:06.750Z,19200.00
2019-06-27T06:54:06.987Z,18592.00
2019-06-27T06:55:07.226Z,17888.00
2019-06-27T06:56:07.465Z,18112.00
2019-06-27T06:57:07.701Z,17696.00
2019-06-27T06:58:07.940Z,17024.00
2019-06-27T06:59:08.357Z,16768.00
2019-06-27T07:00:08.461Z,16416.00
2019-06-27T07:01:08.655Z,16416.00
2019-06-27T07:02:08.890Z,16192.00
2019-06-27T07:03:09.132Z,15936.00
2019-06-27T07:04:09.368Z,15776.00
2019-06-27T07:05:09.606Z,15328.00
2019-06-27T07:06:09.841Z,14912.00
2019-06-27T07:07:13.014Z,12908.00
2019-06-27T07:08:10.319Z,10828.00
2019-06-27T07:09:10.602Z,10632.00
2019-06-27T07:10:10.795Z,10568.00
2019-06-27T07:11:11.031Z,10500.00
2019-06-27T07:12:11.267Z,10500.00
2019-06-27T07:13:11.504Z,10552.00
2019-06-27T07:14:11.749Z,10544.00
2019-06-27T07:15:11.978Z,10476.00
2019-06-27T07:16:12.217Z,10464.00
2019-06-27T07:17:12.453Z,10440.00
2019-06-27T07:18:12.696Z,10444.00
2019-06-27T07:19:12.934Z,10384.00
2019-06-27T07:20:13.166Z,10352.00
2019-06-27T07:21:13.400Z,10312.00
2019-06-27T07:22:13.639Z,10332.00
2019-06-27T07:23:13.872Z,10304.00
2019-06-27T07:24:14.112Z,10244.00
2019-06-27T07:25:14.346Z,10232.00
2019-06-27T07:26:14.580Z,10208.00
2019-06-27T07:27:14.815Z,10204.00
2019-06-27T07:28:15.053Z,10140.00
2019-06-27T07:29:15.287Z,10140.00
2019-06-27T07:30:15.518Z,10104.00
2019-06-27T07:31:18.189Z,10108.00
2019-06-27T07:32:15.989Z,10128.00
2019-06-27T07:33:16.225Z,10112.00
2019-06-27T07:34:16.455Z,10156.00
2019-06-27T07:35:16.693Z,10096.00
2019-06-27T07:36:16.923Z,10140.00
2019-06-27T07:37:17.157Z,10124.00
2019-06-27T07:38:17.389Z,10128.00
2019-06-27T07:39:17.622Z,10064.00
2019-06-27T07:40:17.857Z,10020.00
2019-06-27T07:41:18.091Z,10068.00
2019-06-27T07:42:18.327Z,10088.00
2019-06-27T07:43:18.560Z,10036.00
2019-06-27T07:44:20.352Z,10028.00
2019-06-27T07:45:19.034Z,10028.00
2019-06-27T07:46:25.034Z,10004.00
2019-06-27T07:47:19.499Z,9984.00
2019-06-27T07:48:19.738Z,10012.00
2019-06-27T07:49:19.967Z,9968.00
2019-06-27T07:50:20.202Z,9952.00
2019-06-27T07:51:20.440Z,9992.00
2019-06-27T07:52:20.671Z,9972.00
2019-06-27T07:53:20.914Z,10000.00
2019-06-27T07:54:21.141Z,9956.00
2019-06-27T07:55:21.389Z,9928.00
2019-06-27T07:56:21.610Z,9932.00
2019-06-27T07:57:21.843Z,9940.00
2019-06-27T07:58:22.078Z,9924.00
2019-06-27T07:59:22.310Z,9908.00
2019-06-27T08:00:22.548Z,9928.00
2019-06-27T08:01:34.448Z,9932.00
2019-06-27T08:02:23.017Z,9952.00
2019-06-27T08:03:23.254Z,9948.00
2019-06-27T08:04:23.485Z,9924.00
2019-06-27T08:05:23.746Z,9924.00
2019-06-27T08:06:23.979Z,9928.00
2019-06-27T08:07:24.220Z,9912.00
2019-06-27T08:08:24.445Z,9868.00
2019-06-27T08:09:24.683Z,9864.00
2019-06-27T08:10:24.915Z,9860.00
2019-06-27T08:11:25.151Z,9828.00
2019-06-27T08:12:25.391Z,9808.00
2019-06-27T08:13:25.620Z,9808.00
2019-06-27T08:14:25.854Z,9808.00
2019-06-27T08:15:26.086Z,9808.00
2019-06-27T08:16:26.315Z,9780.00
2019-06-27T08:17:26.557Z,9768.00
2019-06-27T08:18:28.362Z,9748.00
2019-06-27T08:19:27.015Z,9712.00
2019-06-27T08:20:27.250Z,9704.00
2019-06-27T08:21:27.477Z,9684.00
2019-06-27T08:22:27.709Z,9668.00
2019-06-27T08:23:40.950Z,9704.00
2019-06-27T08:24:28.177Z,9692.00
2019-06-27T08:25:28.412Z,9668.00
2019-06-27T08:26:28.645Z,9628.00
2019-06-27T08:27:28.885Z,9632.00
2019-06-27T08:28:29.112Z,9608.00
2019-06-27T08:29:29.351Z,9572.00
2019-06-27T08:30:29.580Z,9584.00
2019-06-27T08:31:29.813Z,9560.00
2019-06-27T08:32:30.050Z,9516.00
2019-06-27T08:33:30.283Z,9476.00
2019-06-27T08:34:30.517Z,9468.00
2019-06-27T08:35:33.471Z,9448.00
2019-06-27T08:36:30.983Z,9468.00
2019-06-27T08:37:31.216Z,9468.00
2019-06-27T08:38:31.449Z,9456.00
2019-06-27T08:39:31.700Z,9416.00
2019-06-27T08:40:31.915Z,9428.00
2019-06-27T08:41:32.150Z,9392.00
2019-06-27T08:42:32.381Z,9332.00
2019-06-27T08:43:32.618Z,9308.00
2019-06-27T08:44:32.850Z,9324.00
2019-06-27T08:45:33.097Z,9292.00
2019-06-27T08:46:33.315Z,9264.00
2019-06-27T08:47:33.558Z,9244.00
2019-06-27T08:48:33.783Z,9228.00
2019-06-27T08:49:34.021Z,9212.00
2019-06-27T08:50:34.255Z,9176.00
2019-06-27T08:51:34.489Z,9160.00
2019-06-27T08:52:34.721Z,9148.00
2019-06-27T08:53:34.958Z,9136.00
2019-06-27T08:54:35.194Z,9128.00
2019-06-27T08:55:35.429Z,9108.00
2019-06-27T08:56:35.657Z,9108.00
2019-06-27T08:57:35.898Z,9088.00
2019-06-27T08:58:36.126Z,9096.00
2019-06-27T08:59:36.361Z,9100.00
2019-06-27T09:00:36.591Z,9080.00
2019-06-27T09:01:36.825Z,9092.00
2019-06-27T09:02:37.060Z,9072.00
2019-06-27T09:03:37.294Z,9072.00
2019-06-27T09:04:37.556Z,9048.00
2019-06-27T09:05:37.759Z,9044.00
2019-06-27T09:06:37.992Z,9028.00
2019-06-27T09:07:38.228Z,9016.00
2019-06-27T09:08:38.464Z,8996.00
2019-06-27T09:09:38.697Z,9004.00
2019-06-27T09:10:38.933Z,8988.00
2019-06-27T09:11:39.228Z,8968.00
2019-06-27T09:12:39.401Z,8964.00
2019-06-27T09:13:39.640Z,8960.00
2019-06-27T09:14:39.865Z,8960.00
2019-06-27T09:15:40.097Z,8956.00
2019-06-27T09:16:40.333Z,8960.00
2019-06-27T09:17:40.567Z,8960.00
2019-06-27T09:18:40.797Z,8940.00
2019-06-27T09:19:41.033Z,8912.00
2019-06-27T09:20:41.265Z,8888.00
2019-06-27T09:21:41.502Z,8884.00
2019-06-27T09:22:41.736Z,8864.00
2019-06-27T09:23:41.969Z,8876.00
2019-06-27T09:24:42.202Z,8888.00
2019-06-27T09:25:42.441Z,8884.00
2019-06-27T09:26:42.669Z,8884.00
2019-06-27T09:27:42.966Z,8900.00
2019-06-27T09:28:43.139Z,8876.00
2019-06-27T09:29:43.376Z,8888.00
2019-06-27T09:30:43.608Z,8868.00
2019-06-27T09:31:43.847Z,8860.00
2019-06-27T09:32:44.078Z,8848.00
2019-06-27T09:33:44.308Z,8852.00
2019-06-27T09:34:44.543Z,8848.00
2019-06-27T09:35:44.774Z,8820.00
2019-06-27T09:36:45.023Z,8824.00
2019-06-27T09:37:45.242Z,8820.00
2019-06-27T09:38:45.475Z,8828.00
2019-06-27T09:39:45.715Z,8812.00
2019-06-27T09:40:45.943Z,8828.00
2019-06-27T09:41:46.176Z,8844.00
2019-06-27T09:42:46.412Z,8784.00
2019-06-27T09:43:46.643Z,8764.00
2019-06-27T09:44:46.894Z,8748.00
2019-06-27T09:45:47.128Z,8776.00
2019-06-27T09:46:47.363Z,8788.00
2019-06-27T09:47:47.598Z,8768.00
2019-06-27T09:48:47.831Z,8764.00
2019-06-27T09:49:48.067Z,8776.00
2019-06-27T09:50:48.301Z,8768.00
2019-06-27T09:51:48.533Z,8784.00
2019-06-27T09:52:48.768Z,8788.00
2019-06-27T09:53:49.002Z,8784.00
2019-06-27T09:54:49.239Z,8784.00
2019-06-27T09:55:49.471Z,8768.00
2019-06-27T09:56:49.709Z,8756.00
2019-06-27T09:57:49.943Z,8724.00
2019-06-27T09:58:50.168Z,8720.00
2019-06-27T09:59:50.401Z,8700.00
2019-06-27T10:00:50.639Z,8692.00
2019-06-27T10:01:50.873Z,8688.00
2019-06-27T10:02:51.112Z,8672.00
2019-06-27T10:03:51.342Z,8656.00
2019-06-27T10:04:51.604Z,8632.00
2019-06-27T10:05:51.811Z,8604.00
2019-06-27T10:06:52.043Z,8580.00
2019-06-27T10:07:52.298Z,8568.00
2019-06-27T10:08:52.511Z,8568.00
2019-06-27T10:09:52.742Z,8548.00
2019-06-27T10:10:52.971Z,8520.00
2019-06-27T10:11:53.565Z,8524.00
2019-06-27T10:12:53.443Z,8516.00
2019-06-27T10:13:53.676Z,8496.00
2019-06-27T10:14:53.909Z,8476.00
2019-06-27T10:15:54.142Z,8456.00
2019-06-27T10:16:54.377Z,8460.00
2019-06-27T10:17:54.611Z,8404.00
2019-06-27T10:18:54.847Z,8396.00
2019-06-27T10:19:55.083Z,8412.00
2019-06-27T10:20:55.313Z,8380.00
2019-06-27T10:21:55.547Z,8360.00
2019-06-27T10:22:55.783Z,8332.00
2019-06-27T10:23:56.017Z,8324.00
2019-06-27T10:24:56.252Z,8300.00
2019-06-27T10:25:56.559Z,8304.00
2019-06-27T10:26:56.720Z,8304.00
2019-06-27T10:27:56.966Z,8312.00
2019-06-27T10:28:57.200Z,8304.00
2019-06-27T10:29:57.426Z,8272.00
2019-06-27T10:30:57.658Z,8248.00
2019-06-27T10:31:57.899Z,8260.00
2019-06-27T10:33:00.081Z,8224.00
2019-06-27T10:33:58.369Z,8228.00
2019-06-27T10:34:58.606Z,8208.00
2019-06-27T10:35:58.839Z,8184.00
2019-06-27T10:36:59.075Z,8152.00
2019-06-27T10:37:59.338Z,8128.00
2019-06-27T10:38:59.549Z,8144.00
2019-06-27T10:39:59.832Z,8132.00
2019-06-27T10:41:00.013Z,8112.00
2019-06-27T10:42:00.248Z,8304.00
2019-06-27T10:43:00.481Z,8716.00
2019-06-27T10:44:00.716Z,8832.00
2019-06-27T10:45:00.948Z,8492.00
2019-06-27T10:46:01.184Z,8188.00
2019-06-27T10:47:01.414Z,8152.00
2019-06-27T10:48:01.645Z,8124.00
2019-06-27T10:49:01.889Z,8112.00
2019-06-27T10:50:02.132Z,8092.00
2019-06-27T10:51:02.839Z,8076.00
2019-06-27T10:52:02.593Z,8068.00
2019-06-27T10:53:02.826Z,8064.00
2019-06-27T10:54:03.059Z,8036.00
2019-06-27T10:55:03.293Z,8012.00
2019-06-27T10:56:03.576Z,7984.00
2019-06-27T10:57:03.763Z,7960.00
2019-06-27T10:58:03.996Z,7960.00
2019-06-27T10:59:04.234Z,7948.00
2019-06-27T11:00:04.643Z,7928.00
2019-06-27T11:01:04.702Z,7920.00
2019-06-27T11:02:04.941Z,7904.00
2019-06-27T11:03:14.955Z,7900.00
2019-06-27T11:04:05.410Z,7924.00
2019-06-27T11:05:05.645Z,7904.00
2019-06-27T11:06:05.879Z,7896.00
2019-06-27T11:07:06.111Z,7880.00
2019-06-27T11:08:06.346Z,7872.00
2019-06-27T11:09:06.585Z,7864.00
2019-06-27T11:10:06.822Z,7856.00
2019-06-27T11:11:07.054Z,7800.00
2019-06-27T11:12:07.290Z,7768.00
2019-06-27T11:13:07.521Z,7804.00
2019-06-27T11:14:07.758Z,7808.00
2019-06-27T11:15:07.998Z,7796.00
2019-06-27T11:16:08.250Z,7796.00
2019-06-27T11:17:08.468Z,7788.00
2019-06-27T11:18:08.700Z,7784.00
2019-06-27T11:19:08.933Z,7788.00
2019-06-27T11:20:09.169Z,7768.00
2019-06-27T11:21:09.401Z,7748.00
2019-06-27T11:22:09.648Z,7740.00
2019-06-27T11:23:09.886Z,7732.00
2019-06-27T11:24:10.109Z,7784.00
2019-06-27T11:25:10.352Z,7772.00
2019-06-27T11:26:10.593Z,7772.00
2019-06-27T11:27:10.811Z,7752.00
2019-06-27T11:28:11.061Z,7756.00
2019-06-27T11:29:11.289Z,7744.00
2019-06-27T11:30:11.517Z,7748.00
2019-06-27T11:31:11.752Z,7736.00
2019-06-27T11:32:11.983Z,7716.00
2019-06-27T11:33:12.243Z,7712.00
2019-06-27T11:34:12.456Z,7704.00
2019-06-27T11:35:12.686Z,7700.00
2019-06-27T11:36:12.923Z,7704.00
2019-06-27T11:37:13.156Z,7696.00
2019-06-27T11:38:13.393Z,7684.00
2019-06-27T11:39:13.628Z,7684.00
2019-06-27T11:40:13.866Z,7676.00
2019-06-27T11:41:14.128Z,7668.00
2019-06-27T11:42:14.362Z,7660.00
2019-06-27T11:43:14.583Z,7668.00
2019-06-27T11:44:14.816Z,7656.00
2019-06-27T11:45:15.049Z,7656.00
2019-06-27T11:46:15.283Z,7624.00
2019-06-27T11:47:15.507Z,7624.00
2019-06-27T11:48:15.765Z,7624.00
2019-06-27T11:49:16.000Z,7612.00
2019-06-27T11:50:16.232Z,7596.00
2019-06-27T11:51:16.464Z,7584.00
2019-06-27T11:52:16.701Z,7576.00
2019-06-27T11:53:16.934Z,7580.00
2019-06-27T11:54:17.171Z,7568.00
2019-06-27T11:55:17.404Z,7556.00
2019-06-27T11:56:17.638Z,7564.00
2019-06-27T11:57:17.870Z,7560.00
2019-06-27T11:58:18.107Z,7556.00
2019-06-27T11:59:18.337Z,7544.00
2019-06-27T12:00:18.573Z,7536.00
2019-06-27T12:01:18.803Z,7540.00
2019-06-27T12:02:19.038Z,7532.00
2019-06-27T12:03:19.269Z,7520.00
2019-06-27T12:04:19.507Z,7512.00
2019-06-27T12:05:19.741Z,7512.00
2019-06-27T12:06:19.972Z,7504.00
2019-06-27T12:07:20.211Z,7496.00
2019-06-27T12:08:20.441Z,7488.00
2019-06-27T12:09:20.675Z,7488.00
2019-06-27T12:10:20.910Z,7492.00
2019-06-27T12:11:21.168Z,7484.00
2019-06-27T12:12:21.377Z,7480.00
2019-06-27T12:13:21.614Z,7480.00
2019-06-27T12:14:21.850Z,7476.00
2019-06-27T12:15:22.083Z,7476.00
2019-06-27T12:16:22.315Z,7460.00
2019-06-27T12:17:22.551Z,7448.00